sensor_id;sensor_type;location;lat;lon;timestamp;P1;durP1;ratioP1;P2;durP2;ratioP2
72127;SDS011;60000;51.030;7.024;2023-04-24T00:01:34;2.90;;;0.87;;
72127;SDS011;60000;51.030;7.024;2023-04-24T00:04:01;3.03;;;1.10;;
72127;SDS011;60000;51.030;7.024;2023-04-24T00:06:28;3.13;;;0.90;;
72127;SDS011;60000;51.030;7.024;2023-04-24T00:08:58;2.47;;;1.00;;
72127;SDS011;60000;51.030;7.024;2023-04-24T00:11:24;2.47;;;0.90;;
72127;SDS011;60000;51.030;7.024;2023-04-24T00:13:49;1.80;;;0.73;;
72127;SDS011;60000;51.030;7.024;2023-04-24T00:16:14;2.20;;;1.07;;
72127;SDS011;60000;51.030;7.024;2023-04-24T00:18:40;2.20;;;0.80;;
72127;SDS011;60000;51.030;7.024;2023-04-24T00:21:06;2.50;;;0.90;;
72127;SDS011;60000;51.030;7.024;2023-04-24T00:23:32;2.20;;;1.10;;
72127;SDS011;60000;51.030;7.024;2023-04-24T00:25:57;2.37;;;1.07;;
72127;SDS011;60000;51.030;7.024;2023-04-24T00:28:22;3.47;;;1.07;;
72127;SDS011;60000;51.030;7.024;2023-04-24T00:30:48;2.33;;;0.90;;
72127;SDS011;60000;51.030;7.024;2023-04-24T00:33:13;2.43;;;0.90;;
72127;SDS011;60000;51.030;7.024;2023-04-24T00:35:39;2.15;;;0.95;;
72127;SDS011;60000;51.030;7.024;2023-04-24T00:38:05;2.97;;;1.13;;
72127;SDS011;60000;51.030;7.024;2023-04-24T00:40:30;2.37;;;1.07;;
72127;SDS011;60000;51.030;7.024;2023-04-24T00:42:55;3.13;;;1.30;;
72127;SDS011;60000;51.030;7.024;2023-04-24T00:45:21;2.50;;;1.00;;
72127;SDS011;60000;51.030;7.024;2023-04-24T00:47:46;3.30;;;1.17;;
72127;SDS011;60000;51.030;7.024;2023-04-24T00:50:14;3.58;;;1.02;;
72127;SDS011;60000;51.030;7.024;2023-04-24T00:52:40;2.72;;;1.00;;
72127;SDS011;60000;51.030;7.024;2023-04-24T00:55:05;2.63;;;1.27;;
72127;SDS011;60000;51.030;7.024;2023-04-24T00:57:32;3.15;;;1.10;;
72127;SDS011;60000;51.030;7.024;2023-04-24T00:59:57;2.60;;;1.27;;
72127;SDS011;60000;51.030;7.024;2023-04-24T01:02:23;3.53;;;1.30;;
72127;SDS011;60000;51.030;7.024;2023-04-24T01:04:50;5.13;;;1.30;;
72127;SDS011;60000;51.030;7.024;2023-04-24T01:07:17;3.00;;;1.20;;
72127;SDS011;60000;51.030;7.024;2023-04-24T01:09:45;4.10;;;1.30;;
72127;SDS011;60000;51.030;7.024;2023-04-24T01:12:14;2.45;;;1.13;;
72127;SDS011;60000;51.030;7.024;2023-04-24T01:14:40;4.13;;;1.45;;
72127;SDS011;60000;51.030;7.024;2023-04-24T01:17:05;3.27;;;1.40;;
72127;SDS011;60000;51.030;7.024;2023-04-24T01:19:32;2.78;;;1.27;;
72127;SDS011;60000;51.030;7.024;2023-04-24T01:21:58;4.40;;;1.50;;
72127;SDS011;60000;51.030;7.024;2023-04-24T01:24:26;3.60;;;1.30;;
72127;SDS011;60000;51.030;7.024;2023-04-24T01:26:52;3.37;;;1.30;;
72127;SDS011;60000;51.030;7.024;2023-04-24T01:29:17;3.83;;;1.50;;
72127;SDS011;60000;51.030;7.024;2023-04-24T01:31:43;3.75;;;1.23;;
72127;SDS011;60000;51.030;7.024;2023-04-24T01:34:09;5.07;;;1.53;;
72127;SDS011;60000;51.030;7.024;2023-04-24T01:36:34;5.43;;;1.67;;
72127;SDS011;60000;51.030;7.024;2023-04-24T01:39:01;4.18;;;1.73;;
72127;SDS011;60000;51.030;7.024;2023-04-24T01:41:27;3.55;;;1.50;;
72127;SDS011;60000;51.030;7.024;2023-04-24T01:43:53;4.68;;;1.48;;
72127;SDS011;60000;51.030;7.024;2023-04-24T01:46:18;5.63;;;1.70;;
72127;SDS011;60000;51.030;7.024;2023-04-24T01:48:44;4.47;;;1.83;;
72127;SDS011;60000;51.030;7.024;2023-04-24T01:51:11;5.82;;;1.92;;
72127;SDS011;60000;51.030;7.024;2023-04-24T01:53:36;7.30;;;1.70;;
72127;SDS011;60000;51.030;7.024;2023-04-24T01:56:01;4.57;;;2.10;;
72127;SDS011;60000;51.030;7.024;2023-04-24T01:58:27;8.15;;;2.30;;
72127;SDS011;60000;51.030;7.024;2023-04-24T02:00:55;6.20;;;2.30;;
72127;SDS011;60000;51.030;7.024;2023-04-24T02:03:21;5.03;;;2.10;;
72127;SDS011;60000;51.030;7.024;2023-04-24T02:05:46;6.53;;;2.50;;
72127;SDS011;60000;51.030;7.024;2023-04-24T02:08:12;6.15;;;2.28;;
72127;SDS011;60000;51.030;7.024;2023-04-24T02:10:37;6.05;;;2.75;;
72127;SDS011;60000;51.030;7.024;2023-04-24T02:13:02;7.27;;;2.97;;
72127;SDS011;60000;51.030;7.024;2023-04-24T02:15:28;8.80;;;3.40;;
72127;SDS011;60000;51.030;7.024;2023-04-24T02:17:53;5.67;;;2.87;;
72127;SDS011;60000;51.030;7.024;2023-04-24T02:20:18;6.27;;;3.20;;
72127;SDS011;60000;51.030;7.024;2023-04-24T02:22:44;6.80;;;3.53;;
72127;SDS011;60000;51.030;7.024;2023-04-24T02:25:09;9.10;;;3.60;;
72127;SDS011;60000;51.030;7.024;2023-04-24T02:27:34;9.65;;;3.60;;
72127;SDS011;60000;51.030;7.024;2023-04-24T02:30:00;8.23;;;3.58;;
72127;SDS011;60000;51.030;7.024;2023-04-24T02:32:25;8.17;;;3.13;;
72127;SDS011;60000;51.030;7.024;2023-04-24T02:34:51;7.67;;;3.60;;
72127;SDS011;60000;51.030;7.024;2023-04-24T02:37:16;7.60;;;3.57;;
72127;SDS011;60000;51.030;7.024;2023-04-24T02:39:41;8.87;;;4.03;;
72127;SDS011;60000;51.030;7.024;2023-04-24T02:42:07;9.67;;;3.80;;
72127;SDS011;60000;51.030;7.024;2023-04-24T02:44:32;7.65;;;3.75;;
72127;SDS011;60000;51.030;7.024;2023-04-24T02:46:58;8.37;;;3.87;;
72127;SDS011;60000;51.030;7.024;2023-04-24T02:49:23;8.47;;;3.57;;
72127;SDS011;60000;51.030;7.024;2023-04-24T02:51:49;8.40;;;3.45;;
72127;SDS011;60000;51.030;7.024;2023-04-24T02:54:14;9.10;;;4.00;;
72127;SDS011;60000;51.030;7.024;2023-04-24T02:56:39;10.07;;;3.87;;
72127;SDS011;60000;51.030;7.024;2023-04-24T02:59:05;8.50;;;3.87;;
72127;SDS011;60000;51.030;7.024;2023-04-24T03:01:30;6.83;;;3.47;;
72127;SDS011;60000;51.030;7.024;2023-04-24T03:03:56;9.55;;;3.60;;
72127;SDS011;60000;51.030;7.024;2023-04-24T03:06:21;9.13;;;3.60;;
72127;SDS011;60000;51.030;7.024;2023-04-24T03:08:47;7.50;;;3.45;;
72127;SDS011;60000;51.030;7.024;2023-04-24T03:11:13;6.50;;;3.00;;
72127;SDS011;60000;51.030;7.024;2023-04-24T03:13:38;8.13;;;3.47;;
72127;SDS011;60000;51.030;7.024;2023-04-24T03:16:03;8.40;;;3.70;;
72127;SDS011;60000;51.030;7.024;2023-04-24T03:18:29;7.88;;;4.00;;
72127;SDS011;60000;51.030;7.024;2023-04-24T03:20:55;10.70;;;4.37;;
72127;SDS011;60000;51.030;7.024;2023-04-24T03:23:20;9.13;;;3.50;;
72127;SDS011;60000;51.030;7.024;2023-04-24T03:25:53;8.27;;;3.85;;
72127;SDS011;60000;51.030;7.024;2023-04-24T03:28:20;6.73;;;3.40;;
72127;SDS011;60000;51.030;7.024;2023-04-24T03:30:45;8.05;;;4.00;;
72127;SDS011;60000;51.030;7.024;2023-04-24T03:33:10;8.80;;;3.63;;
72127;SDS011;60000;51.030;7.024;2023-04-24T03:35:36;9.43;;;4.80;;
72127;SDS011;60000;51.030;7.024;2023-04-24T03:38:01;10.27;;;4.13;;
72127;SDS011;60000;51.030;7.024;2023-04-24T03:40:26;8.87;;;4.50;;
72127;SDS011;60000;51.030;7.024;2023-04-24T03:42:54;10.73;;;4.82;;
72127;SDS011;60000;51.030;7.024;2023-04-24T03:45:19;7.53;;;4.00;;
72127;SDS011;60000;51.030;7.024;2023-04-24T03:47:45;9.17;;;4.37;;
72127;SDS011;60000;51.030;7.024;2023-04-24T03:50:10;9.77;;;4.38;;
72127;SDS011;60000;51.030;7.024;2023-04-24T03:52:35;7.90;;;4.00;;
72127;SDS011;60000;51.030;7.024;2023-04-24T03:55:01;9.13;;;4.30;;
72127;SDS011;60000;51.030;7.024;2023-04-24T03:57:26;8.90;;;4.30;;
72127;SDS011;60000;51.030;7.024;2023-04-24T03:59:52;11.43;;;4.70;;
72127;SDS011;60000;51.030;7.024;2023-04-24T04:02:18;8.50;;;4.20;;
72127;SDS011;60000;51.030;7.024;2023-04-24T04:04:43;9.83;;;4.70;;
72127;SDS011;60000;51.030;7.024;2023-04-24T04:07:09;8.57;;;4.40;;
72127;SDS011;60000;51.030;7.024;2023-04-24T04:09:34;10.23;;;4.40;;
72127;SDS011;60000;51.030;7.024;2023-04-24T04:11:59;8.55;;;4.03;;
72127;SDS011;60000;51.030;7.024;2023-04-24T04:14:25;11.07;;;4.30;;
72127;SDS011;60000;51.030;7.024;2023-04-24T04:16:51;8.93;;;4.68;;
72127;SDS011;60000;51.030;7.024;2023-04-24T04:19:16;9.43;;;4.30;;
72127;SDS011;60000;51.030;7.024;2023-04-24T04:21:42;9.97;;;4.33;;
72127;SDS011;60000;51.030;7.024;2023-04-24T04:24:07;7.80;;;4.13;;
72127;SDS011;60000;51.030;7.024;2023-04-24T04:26:32;7.70;;;3.97;;
72127;SDS011;60000;51.030;7.024;2023-04-24T04:28:58;10.40;;;4.47;;
72127;SDS011;60000;51.030;7.024;2023-04-24T04:31:25;11.00;;;4.68;;
72127;SDS011;60000;51.030;7.024;2023-04-24T04:33:51;9.83;;;4.30;;
72127;SDS011;60000;51.030;7.024;2023-04-24T04:36:16;8.07;;;3.92;;
72127;SDS011;60000;51.030;7.024;2023-04-24T04:38:42;8.30;;;4.27;;
72127;SDS011;60000;51.030;7.024;2023-04-24T04:41:08;10.57;;;4.70;;
72127;SDS011;60000;51.030;7.024;2023-04-24T04:43:33;8.13;;;3.57;;
72127;SDS011;60000;51.030;7.024;2023-04-24T04:45:59;8.48;;;4.20;;
72127;SDS011;60000;51.030;7.024;2023-04-24T04:48:25;8.95;;;4.45;;
72127;SDS011;60000;51.030;7.024;2023-04-24T04:50:52;9.30;;;4.17;;
72127;SDS011;60000;51.030;7.024;2023-04-24T04:53:17;9.63;;;4.28;;
72127;SDS011;60000;51.030;7.024;2023-04-24T04:55:42;9.55;;;4.20;;
72127;SDS011;60000;51.030;7.024;2023-04-24T04:58:08;8.47;;;3.70;;
72127;SDS011;60000;51.030;7.024;2023-04-24T05:00:33;7.03;;;3.40;;
72127;SDS011;60000;51.030;7.024;2023-04-24T05:03:01;8.00;;;3.50;;
72127;SDS011;60000;51.030;7.024;2023-04-24T05:05:26;9.47;;;3.60;;
72127;SDS011;60000;51.030;7.024;2023-04-24T05:07:52;10.07;;;3.85;;
72127;SDS011;60000;51.030;7.024;2023-04-24T05:10:17;7.43;;;4.07;;
72127;SDS011;60000;51.030;7.024;2023-04-24T05:12:42;7.90;;;3.93;;
72127;SDS011;60000;51.030;7.024;2023-04-24T05:15:08;9.13;;;3.90;;
72127;SDS011;60000;51.030;7.024;2023-04-24T05:17:33;8.40;;;4.00;;
72127;SDS011;60000;51.030;7.024;2023-04-24T05:19:59;7.43;;;3.60;;
72127;SDS011;60000;51.030;7.024;2023-04-24T05:22:24;8.20;;;3.50;;
72127;SDS011;60000;51.030;7.024;2023-04-24T05:24:49;6.80;;;3.37;;
72127;SDS011;60000;51.030;7.024;2023-04-24T05:27:15;9.37;;;3.60;;
72127;SDS011;60000;51.030;7.024;2023-04-24T05:29:40;8.43;;;4.10;;
72127;SDS011;60000;51.030;7.024;2023-04-24T05:32:06;7.03;;;3.70;;
72127;SDS011;60000;51.030;7.024;2023-04-24T05:34:31;8.05;;;3.65;;
72127;SDS011;60000;51.030;7.024;2023-04-24T05:36:57;9.73;;;4.40;;
72127;SDS011;60000;51.030;7.024;2023-04-24T05:39:22;8.60;;;3.87;;
72127;SDS011;60000;51.030;7.024;2023-04-24T05:41:49;9.88;;;4.03;;
72127;SDS011;60000;51.030;7.024;2023-04-24T05:44:15;7.97;;;3.67;;
72127;SDS011;60000;51.030;7.024;2023-04-24T05:46:40;11.00;;;4.40;;
72127;SDS011;60000;51.030;7.024;2023-04-24T05:49:05;10.47;;;3.83;;
72127;SDS011;60000;51.030;7.024;2023-04-24T05:51:31;11.20;;;3.93;;
72127;SDS011;60000;51.030;7.024;2023-04-24T05:53:56;8.73;;;4.00;;
72127;SDS011;60000;51.030;7.024;2023-04-24T05:56:22;12.73;;;4.30;;
72127;SDS011;60000;51.030;7.024;2023-04-24T05:58:48;7.32;;;3.58;;
72127;SDS011;60000;51.030;7.024;2023-04-24T06:01:13;9.07;;;3.73;;
72127;SDS011;60000;51.030;7.024;2023-04-24T06:03:41;8.73;;;4.28;;
72127;SDS011;60000;51.030;7.024;2023-04-24T06:06:07;8.90;;;4.25;;
72127;SDS011;60000;51.030;7.024;2023-04-24T06:08:33;8.13;;;3.83;;
72127;SDS011;60000;51.030;7.024;2023-04-24T06:10:59;9.77;;;4.37;;
72127;SDS011;60000;51.030;7.024;2023-04-24T06:13:24;7.53;;;3.60;;
72127;SDS011;60000;51.030;7.024;2023-04-24T06:15:50;6.93;;;3.60;;
72127;SDS011;60000;51.030;7.024;2023-04-24T06:18:15;9.80;;;4.50;;
72127;SDS011;60000;51.030;7.024;2023-04-24T06:20:41;10.07;;;3.93;;
72127;SDS011;60000;51.030;7.024;2023-04-24T06:23:06;9.73;;;3.78;;
72127;SDS011;60000;51.030;7.024;2023-04-24T06:25:32;8.17;;;3.50;;
72127;SDS011;60000;51.030;7.024;2023-04-24T06:27:57;7.93;;;3.47;;
72127;SDS011;60000;51.030;7.024;2023-04-24T06:30:23;8.02;;;3.58;;
72127;SDS011;60000;51.030;7.024;2023-04-24T06:32:48;9.43;;;3.90;;
72127;SDS011;60000;51.030;7.024;2023-04-24T06:35:14;6.80;;;2.60;;
72127;SDS011;60000;51.030;7.024;2023-04-24T06:37:39;7.67;;;3.53;;
72127;SDS011;60000;51.030;7.024;2023-04-24T06:40:07;7.90;;;2.90;;
72127;SDS011;60000;51.030;7.024;2023-04-24T06:42:33;8.27;;;3.20;;
72127;SDS011;60000;51.030;7.024;2023-04-24T06:44:59;6.72;;;3.05;;
72127;SDS011;60000;51.030;7.024;2023-04-24T06:47:25;7.53;;;3.17;;
72127;SDS011;60000;51.030;7.024;2023-04-24T06:49:50;6.17;;;2.50;;
72127;SDS011;60000;51.030;7.024;2023-04-24T06:52:17;9.25;;;3.45;;
72127;SDS011;60000;51.030;7.024;2023-04-24T06:54:42;6.63;;;2.80;;
72127;SDS011;60000;51.030;7.024;2023-04-24T06:57:08;7.37;;;2.23;;
72127;SDS011;60000;51.030;7.024;2023-04-24T06:59:33;6.18;;;2.20;;
72127;SDS011;60000;51.030;7.024;2023-04-24T07:01:59;4.77;;;1.70;;
72127;SDS011;60000;51.030;7.024;2023-04-24T07:04:24;4.33;;;1.83;;
72127;SDS011;60000;51.030;7.024;2023-04-24T07:06:50;5.20;;;1.87;;
72127;SDS011;60000;51.030;7.024;2023-04-24T07:09:16;5.32;;;1.80;;
72127;SDS011;60000;51.030;7.024;2023-04-24T07:11:43;4.88;;;1.67;;
72127;SDS011;60000;51.030;7.024;2023-04-24T07:14:09;4.45;;;1.90;;
72127;SDS011;60000;51.030;7.024;2023-04-24T07:16:35;4.23;;;1.40;;
72127;SDS011;60000;51.030;7.024;2023-04-24T07:19:00;4.13;;;1.90;;
72127;SDS011;60000;51.030;7.024;2023-04-24T07:21:26;6.55;;;1.90;;
72127;SDS011;60000;51.030;7.024;2023-04-24T07:23:52;3.78;;;1.70;;
72127;SDS011;60000;51.030;7.024;2023-04-24T07:26:17;4.32;;;1.75;;
72127;SDS011;60000;51.030;7.024;2023-04-24T07:28:43;6.77;;;2.53;;
72127;SDS011;60000;51.030;7.024;2023-04-24T07:31:08;6.47;;;2.50;;
72127;SDS011;60000;51.030;7.024;2023-04-24T07:33:35;5.13;;;2.15;;
72127;SDS011;60000;51.030;7.024;2023-04-24T07:36:01;6.00;;;2.30;;
72127;SDS011;60000;51.030;7.024;2023-04-24T07:38:26;5.90;;;2.60;;
72127;SDS011;60000;51.030;7.024;2023-04-24T07:40:54;6.15;;;2.40;;
72127;SDS011;60000;51.030;7.024;2023-04-24T07:43:20;5.83;;;2.00;;
72127;SDS011;60000;51.030;7.024;2023-04-24T07:45:46;4.32;;;1.73;;
72127;SDS011;60000;51.030;7.024;2023-04-24T07:48:11;4.77;;;1.97;;
72127;SDS011;60000;51.030;7.024;2023-04-24T07:50:39;5.05;;;1.90;;
72127;SDS011;60000;51.030;7.024;2023-04-24T07:53:04;4.40;;;1.90;;
72127;SDS011;60000;51.030;7.024;2023-04-24T07:55:30;5.00;;;1.73;;
72127;SDS011;60000;51.030;7.024;2023-04-24T07:57:56;4.97;;;1.92;;
72127;SDS011;60000;51.030;7.024;2023-04-24T08:00:21;4.10;;;1.87;;
72127;SDS011;60000;51.030;7.024;2023-04-24T08:02:46;3.83;;;1.60;;
72127;SDS011;60000;51.030;7.024;2023-04-24T08:05:12;4.20;;;1.77;;
72127;SDS011;60000;51.030;7.024;2023-04-24T08:07:38;4.23;;;1.80;;
72127;SDS011;60000;51.030;7.024;2023-04-24T08:10:03;4.70;;;2.05;;
72127;SDS011;60000;51.030;7.024;2023-04-24T08:12:29;4.40;;;1.90;;
72127;SDS011;60000;51.030;7.024;2023-04-24T08:14:55;4.20;;;1.60;;
72127;SDS011;60000;51.030;7.024;2023-04-24T08:17:20;5.63;;;2.33;;
72127;SDS011;60000;51.030;7.024;2023-04-24T08:19:46;5.90;;;2.17;;
72127;SDS011;60000;51.030;7.024;2023-04-24T08:22:13;4.57;;;1.83;;
72127;SDS011;60000;51.030;7.024;2023-04-24T08:24:39;8.00;;;3.88;;
72127;SDS011;60000;51.030;7.024;2023-04-24T08:27:05;5.20;;;1.60;;
72127;SDS011;60000;51.030;7.024;2023-04-24T08:29:30;9.13;;;1.93;;
72127;SDS011;60000;51.030;7.024;2023-04-24T08:31:56;5.27;;;1.90;;
72127;SDS011;60000;51.030;7.024;2023-04-24T08:34:21;4.00;;;1.73;;
72127;SDS011;60000;51.030;7.024;2023-04-24T08:36:47;4.27;;;1.60;;
72127;SDS011;60000;51.030;7.024;2023-04-24T08:39:12;3.87;;;1.50;;
72127;SDS011;60000;51.030;7.024;2023-04-24T08:41:38;4.23;;;1.43;;
72127;SDS011;60000;51.030;7.024;2023-04-24T08:44:07;4.13;;;1.40;;
72127;SDS011;60000;51.030;7.024;2023-04-24T08:46:34;4.53;;;1.70;;
72127;SDS011;60000;51.030;7.024;2023-04-24T08:49:01;5.22;;;1.42;;
72127;SDS011;60000;51.030;7.024;2023-04-24T08:51:28;9.03;;;1.93;;
72127;SDS011;60000;51.030;7.024;2023-04-24T08:53:55;4.22;;;1.52;;
72127;SDS011;60000;51.030;7.024;2023-04-24T08:56:21;3.80;;;1.73;;
72127;SDS011;60000;51.030;7.024;2023-04-24T08:58:48;6.50;;;2.53;;
72127;SDS011;60000;51.030;7.024;2023-04-24T09:01:15;7.70;;;2.45;;
72127;SDS011;60000;51.030;7.024;2023-04-24T09:03:41;8.80;;;3.27;;
72127;SDS011;60000;51.030;7.024;2023-04-24T09:06:06;11.75;;;3.13;;
72127;SDS011;60000;51.030;7.024;2023-04-24T09:08:34;8.43;;;3.10;;
72127;SDS011;60000;51.030;7.024;2023-04-24T09:11:01;6.87;;;2.70;;
72127;SDS011;60000;51.030;7.024;2023-04-24T09:13:28;9.07;;;3.22;;
72127;SDS011;60000;51.030;7.024;2023-04-24T09:15:55;10.20;;;2.97;;
72127;SDS011;60000;51.030;7.024;2023-04-24T09:18:22;9.38;;;3.38;;
72127;SDS011;60000;51.030;7.024;2023-04-24T09:20:57;8.67;;;3.13;;
72127;SDS011;60000;51.030;7.024;2023-04-24T09:23:25;7.95;;;3.53;;
72127;SDS011;60000;51.030;7.024;2023-04-24T09:25:55;6.68;;;2.83;;
72127;SDS011;60000;51.030;7.024;2023-04-24T09:28:24;8.07;;;2.87;;
72127;SDS011;60000;51.030;7.024;2023-04-24T09:31:26;6.97;;;3.28;;
72127;SDS011;60000;51.030;7.024;2023-04-24T09:34:02;9.52;;;2.95;;
72127;SDS011;60000;51.030;7.024;2023-04-24T09:36:33;9.30;;;3.10;;
72127;SDS011;60000;51.030;7.024;2023-04-24T09:39:03;7.85;;;3.20;;
72127;SDS011;60000;51.030;7.024;2023-04-24T09:41:31;7.00;;;2.70;;
72127;SDS011;60000;51.030;7.024;2023-04-24T09:44:10;6.80;;;2.72;;
72127;SDS011;60000;51.030;7.024;2023-04-24T09:46:37;8.25;;;3.42;;
72127;SDS011;60000;51.030;7.024;2023-04-24T09:49:09;6.70;;;3.00;;
72127;SDS011;60000;51.030;7.024;2023-04-24T09:51:36;7.20;;;3.50;;
72127;SDS011;60000;51.030;7.024;2023-04-24T09:54:03;8.45;;;3.10;;
72127;SDS011;60000;51.030;7.024;2023-04-24T09:56:32;7.53;;;3.00;;
72127;SDS011;60000;51.030;7.024;2023-04-24T09:59:04;9.53;;;3.40;;
72127;SDS011;60000;51.030;7.024;2023-04-24T10:01:31;9.98;;;3.50;;
72127;SDS011;60000;51.030;7.024;2023-04-24T10:03:57;9.93;;;4.25;;
72127;SDS011;60000;51.030;7.024;2023-04-24T10:06:22;9.03;;;3.80;;
72127;SDS011;60000;51.030;7.024;2023-04-24T10:08:55;11.02;;;4.13;;
72127;SDS011;60000;51.030;7.024;2023-04-24T10:11:23;10.57;;;3.65;;
72127;SDS011;60000;51.030;7.024;2023-04-24T10:13:50;10.15;;;4.85;;
72127;SDS011;60000;51.030;7.024;2023-04-24T10:16:16;8.97;;;4.10;;
72127;SDS011;60000;51.030;7.024;2023-04-24T10:18:42;10.82;;;4.45;;
72127;SDS011;60000;51.030;7.024;2023-04-24T10:21:08;11.57;;;4.77;;
72127;SDS011;60000;51.030;7.024;2023-04-24T10:23:34;11.18;;;4.78;;
72127;SDS011;60000;51.030;7.024;2023-04-24T10:26:00;12.88;;;5.20;;
72127;SDS011;60000;51.030;7.024;2023-04-24T10:28:26;9.33;;;4.40;;
72127;SDS011;60000;51.030;7.024;2023-04-24T10:30:53;9.82;;;3.92;;
72127;SDS011;60000;51.030;7.024;2023-04-24T10:33:20;12.30;;;4.03;;
72127;SDS011;60000;51.030;7.024;2023-04-24T10:35:47;13.23;;;4.47;;
72127;SDS011;60000;51.030;7.024;2023-04-24T10:38:18;8.77;;;3.40;;
72127;SDS011;60000;51.030;7.024;2023-04-24T10:40:49;9.90;;;3.90;;
72127;SDS011;60000;51.030;7.024;2023-04-24T10:43:16;9.27;;;3.80;;
72127;SDS011;60000;51.030;7.024;2023-04-24T10:45:42;9.43;;;3.47;;
72127;SDS011;60000;51.030;7.024;2023-04-24T10:48:26;7.95;;;3.60;;
72127;SDS011;60000;51.030;7.024;2023-04-24T10:50:52;8.23;;;3.83;;
72127;SDS011;60000;51.030;7.024;2023-04-24T10:53:22;11.40;;;3.77;;
72127;SDS011;60000;51.030;7.024;2023-04-24T10:56:05;13.05;;;3.90;;
72127;SDS011;60000;51.030;7.024;2023-04-24T10:58:38;12.07;;;3.63;;
72127;SDS011;60000;51.030;7.024;2023-04-24T11:01:05;10.00;;;2.78;;
72127;SDS011;60000;51.030;7.024;2023-04-24T11:03:31;8.82;;;2.85;;
72127;SDS011;60000;51.030;7.024;2023-04-24T11:06:08;6.47;;;2.50;;
72127;SDS011;60000;51.030;7.024;2023-04-24T11:08:46;10.15;;;2.63;;
72127;SDS011;60000;51.030;7.024;2023-04-24T11:11:17;8.10;;;2.50;;
72127;SDS011;60000;51.030;7.024;2023-04-24T11:21:25;7.55;;;2.75;;
72127;SDS011;60000;51.030;7.024;2023-04-24T11:23:56;9.25;;;2.28;;
72127;SDS011;60000;51.030;7.024;2023-04-24T11:26:22;9.53;;;2.40;;
72127;SDS011;60000;51.030;7.024;2023-04-24T11:29:05;9.45;;;2.30;;
72127;SDS011;60000;51.030;7.024;2023-04-24T11:31:38;6.97;;;2.13;;
72127;SDS011;60000;51.030;7.024;2023-04-24T11:34:07;8.15;;;2.40;;
72127;SDS011;60000;51.030;7.024;2023-04-24T11:36:33;10.68;;;2.42;;
72127;SDS011;60000;51.030;7.024;2023-04-24T11:38:59;8.23;;;2.50;;
72127;SDS011;60000;51.030;7.024;2023-04-24T11:41:26;7.55;;;2.33;;
72127;SDS011;60000;51.030;7.024;2023-04-24T11:43:52;7.88;;;2.80;;
72127;SDS011;60000;51.030;7.024;2023-04-24T11:46:20;17.13;;;2.97;;
72127;SDS011;60000;51.030;7.024;2023-04-24T11:48:46;8.70;;;2.83;;
72127;SDS011;60000;51.030;7.024;2023-04-24T11:51:12;8.00;;;2.60;;
72127;SDS011;60000;51.030;7.024;2023-04-24T11:53:38;9.30;;;2.80;;
72127;SDS011;60000;51.030;7.024;2023-04-24T11:56:03;7.53;;;2.97;;
72127;SDS011;60000;51.030;7.024;2023-04-24T11:58:34;10.38;;;2.92;;
72127;SDS011;60000;51.030;7.024;2023-04-24T12:01:05;9.93;;;3.03;;
72127;SDS011;60000;51.030;7.024;2023-04-24T12:03:31;7.20;;;2.63;;
72127;SDS011;60000;51.030;7.024;2023-04-24T12:06:06;10.80;;;3.22;;
72127;SDS011;60000;51.030;7.024;2023-04-24T12:08:32;11.33;;;3.60;;
72127;SDS011;60000;51.030;7.024;2023-04-24T12:10:59;7.78;;;2.92;;
72127;SDS011;60000;51.030;7.024;2023-04-24T12:13:26;7.90;;;2.70;;
72127;SDS011;60000;51.030;7.024;2023-04-24T12:15:51;10.13;;;2.90;;
72127;SDS011;60000;51.030;7.024;2023-04-24T12:18:17;10.43;;;3.40;;
72127;SDS011;60000;51.030;7.024;2023-04-24T12:20:42;9.43;;;3.07;;
72127;SDS011;60000;51.030;7.024;2023-04-24T12:23:07;9.50;;;2.90;;
72127;SDS011;60000;51.030;7.024;2023-04-24T12:25:33;8.80;;;3.43;;
72127;SDS011;60000;51.030;7.024;2023-04-24T12:30:34;10.63;;;3.30;;
72127;SDS011;60000;51.030;7.024;2023-04-24T12:33:03;8.40;;;2.70;;
72127;SDS011;60000;51.030;7.024;2023-04-24T12:35:29;7.07;;;2.60;;
72127;SDS011;60000;51.030;7.024;2023-04-24T12:38:04;8.55;;;3.00;;
72127;SDS011;60000;51.030;7.024;2023-04-24T12:40:40;10.70;;;2.83;;
72127;SDS011;60000;51.030;7.024;2023-04-24T12:43:19;6.28;;;2.40;;
72127;SDS011;60000;51.030;7.024;2023-04-24T12:45:45;8.52;;;2.65;;
72127;SDS011;60000;51.030;7.024;2023-04-24T12:48:13;10.70;;;2.97;;
72127;SDS011;60000;51.030;7.024;2023-04-24T12:50:39;7.67;;;2.67;;
72127;SDS011;60000;51.030;7.024;2023-04-24T12:53:05;10.50;;;3.17;;
72127;SDS011;60000;51.030;7.024;2023-04-24T12:55:31;7.15;;;2.97;;
72127;SDS011;60000;51.030;7.024;2023-04-24T12:57:56;11.90;;;2.97;;
72127;SDS011;60000;51.030;7.024;2023-04-24T13:00:23;8.68;;;2.55;;
72127;SDS011;60000;51.030;7.024;2023-04-24T13:02:48;7.97;;;2.80;;
72127;SDS011;60000;51.030;7.024;2023-04-24T13:05:14;6.70;;;2.50;;
72127;SDS011;60000;51.030;7.024;2023-04-24T13:07:40;8.90;;;3.33;;
72127;SDS011;60000;51.030;7.024;2023-04-24T13:10:06;10.47;;;3.30;;
72127;SDS011;60000;51.030;7.024;2023-04-24T13:12:32;9.77;;;2.95;;
72127;SDS011;60000;51.030;7.024;2023-04-24T13:14:57;11.10;;;3.00;;
72127;SDS011;60000;51.030;7.024;2023-04-24T13:17:23;7.60;;;2.70;;
72127;SDS011;60000;51.030;7.024;2023-04-24T13:19:49;8.87;;;3.23;;
72127;SDS011;60000;51.030;7.024;2023-04-24T13:22:15;7.78;;;2.90;;
72127;SDS011;60000;51.030;7.024;2023-04-24T13:24:42;7.63;;;2.55;;
72127;SDS011;60000;51.030;7.024;2023-04-24T13:27:08;8.30;;;2.70;;
72127;SDS011;60000;51.030;7.024;2023-04-24T13:29:34;9.65;;;2.90;;
72127;SDS011;60000;51.030;7.024;2023-04-24T13:31:59;8.37;;;2.50;;
72127;SDS011;60000;51.030;7.024;2023-04-24T13:34:24;9.73;;;3.20;;
72127;SDS011;60000;51.030;7.024;2023-04-24T13:36:52;6.32;;;2.47;;
72127;SDS011;60000;51.030;7.024;2023-04-24T13:39:18;8.50;;;2.90;;
72127;SDS011;60000;51.030;7.024;2023-04-24T13:41:44;7.67;;;2.27;;
72127;SDS011;60000;51.030;7.024;2023-04-24T13:44:10;6.88;;;2.30;;
72127;SDS011;60000;51.030;7.024;2023-04-24T13:46:35;9.23;;;2.40;;
72127;SDS011;60000;51.030;7.024;2023-04-24T13:49:01;6.43;;;2.20;;
72127;SDS011;60000;51.030;7.024;2023-04-24T13:51:28;8.07;;;2.58;;
72127;SDS011;60000;51.030;7.024;2023-04-24T13:53:54;8.27;;;3.20;;
72127;SDS011;60000;51.030;7.024;2023-04-24T13:56:20;7.38;;;2.88;;
72127;SDS011;60000;51.030;7.024;2023-04-24T13:58:45;7.85;;;2.42;;
72127;SDS011;60000;51.030;7.024;2023-04-24T14:01:11;6.33;;;2.50;;
72127;SDS011;60000;51.030;7.024;2023-04-24T14:03:37;7.68;;;2.50;;
72127;SDS011;60000;51.030;7.024;2023-04-24T14:06:02;8.30;;;2.50;;
72127;SDS011;60000;51.030;7.024;2023-04-24T14:08:28;7.63;;;2.33;;
72127;SDS011;60000;51.030;7.024;2023-04-24T14:10:53;6.70;;;2.20;;
72127;SDS011;60000;51.030;7.024;2023-04-24T14:13:18;6.82;;;2.50;;
72127;SDS011;60000;51.030;7.024;2023-04-24T14:15:44;5.60;;;2.37;;
72127;SDS011;60000;51.030;7.024;2023-04-24T14:18:10;7.88;;;2.50;;
72127;SDS011;60000;51.030;7.024;2023-04-24T14:20:35;8.77;;;2.33;;
72127;SDS011;60000;51.030;7.024;2023-04-24T14:23:00;9.03;;;2.90;;
72127;SDS011;60000;51.030;7.024;2023-04-24T14:25:26;7.23;;;2.33;;
72127;SDS011;60000;51.030;7.024;2023-04-24T14:27:51;8.23;;;2.83;;
72127;SDS011;60000;51.030;7.024;2023-04-24T14:30:17;7.07;;;2.40;;
72127;SDS011;60000;51.030;7.024;2023-04-24T14:32:43;7.10;;;2.65;;
72127;SDS011;60000;51.030;7.024;2023-04-24T14:35:08;5.57;;;2.30;;
72127;SDS011;60000;51.030;7.024;2023-04-24T14:37:34;8.98;;;2.70;;
72127;SDS011;60000;51.030;7.024;2023-04-24T14:40:00;7.60;;;2.57;;
72127;SDS011;60000;51.030;7.024;2023-04-24T14:42:26;8.18;;;2.50;;
72127;SDS011;60000;51.030;7.024;2023-04-24T14:44:51;7.00;;;2.90;;
72127;SDS011;60000;51.030;7.024;2023-04-24T14:47:16;6.50;;;2.20;;
72127;SDS011;60000;51.030;7.024;2023-04-24T14:49:42;8.63;;;3.15;;
72127;SDS011;60000;51.030;7.024;2023-04-24T14:52:09;6.32;;;2.40;;